Terminal Aerodrome Forecast
Issued by NWS

Home | Current Version | Previous Version | Text Only | Print | Product List | Glossary On
Versions: 1 2 3 4 5 6 7 8 9 10 11 12 13 14 15 16 17 18
000
FTAK31 PAJN 010049 AAB
TAFASI
TAF AMD
PASI 010049Z 0101/0124 VRB04KT 6SM -SHRA SCT020 OVC040
      TEMPO 0101/0103 24011KT 1 1/2SM TSRA BKN035CB OVC050
     FM010300 VRB05KT P6SM VCSH BKN050
     FM011200 36005KT P6SM SCT100
     FM011800 32006KT P6SM SCT150=

USA.gov is the U.S. government's official web portal to all federal, state and local government web resources and services.